createdAt,value
2023-12-03T00:01:23.448Z,0.56
2023-12-03T00:04:26.696Z,0.62
2023-12-03T00:07:30.688Z,0.61
2023-12-03T00:10:33.619Z,0.63
2023-12-03T00:13:36.306Z,0.63
2023-12-03T00:16:38.938Z,0.62
2023-12-03T00:19:41.842Z,0.64
2023-12-03T00:22:44.712Z,0.55
2023-12-03T00:25:47.350Z,0.53
2023-12-03T00:28:50.013Z,0.61
2023-12-03T00:31:53.451Z,0.58
2023-12-03T00:34:56.073Z,0.55
2023-12-03T00:37:58.655Z,0.60
2023-12-03T00:41:01.276Z,0.53
2023-12-03T00:44:03.986Z,0.58
2023-12-03T00:47:06.660Z,0.55
2023-12-03T00:50:09.673Z,0.50
2023-12-03T00:53:12.367Z,0.53
2023-12-03T00:56:15.128Z,0.47
2023-12-03T00:59:17.759Z,0.51
2023-12-03T01:02:20.421Z,0.48
2023-12-03T01:05:23.181Z,0.46
2023-12-03T01:08:26.283Z,0.52
2023-12-03T01:11:35.498Z,0.45
2023-12-03T01:14:39.378Z,0.47
2023-12-03T01:17:42.069Z,0.36
2023-12-03T01:20:44.831Z,0.51
2023-12-03T01:23:47.461Z,0.54
2023-12-03T01:26:50.103Z,0.55
2023-12-03T01:29:52.772Z,0.56
2023-12-03T01:32:55.451Z,0.59
2023-12-03T01:35:58.135Z,0.61
2023-12-03T01:39:00.874Z,0.62
2023-12-03T01:42:03.619Z,0.60
2023-12-03T01:45:07.186Z,0.65
2023-12-03T01:48:10.047Z,0.63
2023-12-03T01:51:13.088Z,0.64
2023-12-03T01:54:16.137Z,0.69
2023-12-03T01:57:19.505Z,0.71
2023-12-03T02:00:22.437Z,0.66
2023-12-03T02:03:25.999Z,0.71
2023-12-03T02:06:28.839Z,0.70
2023-12-03T02:09:31.872Z,0.74
2023-12-03T02:12:34.695Z,0.69
2023-12-03T02:15:37.381Z,0.68
2023-12-03T02:18:40.294Z,0.77
2023-12-03T02:21:43.556Z,0.72
2023-12-03T02:24:46.268Z,0.70
2023-12-03T02:27:48.946Z,0.65
2023-12-03T02:30:52.104Z,0.60
2023-12-03T02:34:11.952Z,0.63
2023-12-03T02:37:14.597Z,0.68
2023-12-03T02:40:17.321Z,0.63
2023-12-03T02:43:20.058Z,0.63
2023-12-03T02:46:23.161Z,0.60
2023-12-03T02:49:25.831Z,0.54
2023-12-03T02:52:28.665Z,0.56
2023-12-03T02:55:31.336Z,0.56
2023-12-03T02:58:34.670Z,0.54
2023-12-03T03:01:37.352Z,0.44
2023-12-03T03:04:40.073Z,0.50
2023-12-03T03:07:42.772Z,0.46
2023-12-03T03:10:45.407Z,0.44
2023-12-03T03:13:48.052Z,0.49
2023-12-03T03:16:50.921Z,0.47
2023-12-03T03:19:54.594Z,0.41
2023-12-03T03:22:57.329Z,0.39
2023-12-03T03:25:59.939Z,0.36
2023-12-03T03:29:02.596Z,0.35
2023-12-03T03:32:05.916Z,0.33
2023-12-03T03:35:09.154Z,0.35
2023-12-03T03:38:11.839Z,0.33
2023-12-03T03:41:14.442Z,0.35
2023-12-03T03:44:17.112Z,0.31
2023-12-03T03:47:19.733Z,0.27
2023-12-03T03:50:22.315Z,0.21
2023-12-03T03:53:24.945Z,0.23
2023-12-03T03:56:27.858Z,0.18
2023-12-03T03:59:30.464Z,0.10
2023-12-03T04:02:33.211Z,0.16
2023-12-03T04:05:35.854Z,0.01
2023-12-03T04:08:40.182Z,0.15
2023-12-03T04:11:44.444Z,0.09
2023-12-03T04:14:47.085Z,0.13
2023-12-03T04:17:49.718Z,0.11
2023-12-03T04:20:52.407Z,0.14
2023-12-03T04:23:55.023Z,0.17
2023-12-03T04:26:57.613Z,0.18
2023-12-03T04:30:00.253Z,0.21
2023-12-03T04:33:02.958Z,0.23
2023-12-03T04:36:08.782Z,0.19
2023-12-03T04:39:11.537Z,0.17
2023-12-03T04:42:14.183Z,0.13
2023-12-03T04:45:16.817Z,0.13
2023-12-03T04:48:19.574Z,0.10
2023-12-03T04:51:22.277Z,0.09
2023-12-03T04:54:24.953Z,0.15
2023-12-03T04:57:27.613Z,0.15
2023-12-03T05:00:30.320Z,0.07
2023-12-03T05:03:33.426Z,0.11
2023-12-03T05:06:36.295Z,0.11
2023-12-03T05:09:41.870Z,0.13
2023-12-03T05:12:44.622Z,0.12
2023-12-03T05:15:47.371Z,0.08
2023-12-03T05:18:50.155Z,0.15
2023-12-03T05:21:52.910Z,0.14
2023-12-03T05:24:55.619Z,0.13
2023-12-03T05:27:58.347Z,0.10
2023-12-03T05:31:01.076Z,0.11
2023-12-03T05:34:04.222Z,0.07
2023-12-03T05:37:06.935Z,0.07
2023-12-03T05:40:10.230Z,0.09
2023-12-03T05:43:12.889Z,0.07
2023-12-03T05:46:15.491Z,0.07
2023-12-03T05:49:18.298Z,0.06
2023-12-03T05:52:20.975Z,-0.20
2023-12-03T05:55:23.604Z,0.05
2023-12-03T05:58:26.340Z,0.06
2023-12-03T06:01:29.105Z,0.07
2023-12-03T06:04:31.979Z,0.10
2023-12-03T06:07:34.711Z,0.03
2023-12-03T06:10:37.370Z,0.00
2023-12-03T06:13:40.010Z,0.03
2023-12-03T06:16:42.656Z,-0.03
2023-12-03T06:19:45.529Z,-0.06
2023-12-03T06:22:48.189Z,0.07
2023-12-03T06:25:50.910Z,0.06
2023-12-03T06:28:53.513Z,-0.02
2023-12-03T06:31:56.194Z,0.04
2023-12-03T06:34:58.809Z,0.04
2023-12-03T06:38:01.418Z,0.09
2023-12-03T06:41:04.279Z,0.01
2023-12-03T06:44:07.261Z,0.04
2023-12-03T06:47:09.940Z,-0.01
2023-12-03T06:50:12.621Z,0.02
2023-12-03T06:53:15.287Z,0.06
2023-12-03T06:56:17.938Z,-0.01
2023-12-03T06:59:20.577Z,0.08
2023-12-03T07:02:23.181Z,0.06
2023-12-03T07:05:25.891Z,0.01
2023-12-03T07:08:28.655Z,0.00
2023-12-03T07:11:31.408Z,0.01
2023-12-03T07:14:34.062Z,0.04
2023-12-03T07:17:36.773Z,0.13
2023-12-03T07:20:39.436Z,0.05
2023-12-03T07:23:42.147Z,0.08
2023-12-03T07:26:45.581Z,0.12
2023-12-03T07:29:50.763Z,0.00
2023-12-03T07:32:53.860Z,-0.08
2023-12-03T07:35:57.917Z,-0.02
2023-12-03T07:39:00.591Z,0.04
2023-12-03T07:42:03.209Z,-0.02
2023-12-03T07:45:06.407Z,-0.06
2023-12-03T07:48:09.163Z,-0.08
2023-12-03T07:51:12.978Z,-0.14
2023-12-03T07:54:16.107Z,-0.13
2023-12-03T07:57:18.922Z,-0.13
2023-12-03T08:00:21.737Z,-0.15
2023-12-03T08:03:24.496Z,-0.11
2023-12-03T08:06:27.675Z,-0.20
2023-12-03T08:09:30.381Z,-0.14
2023-12-03T08:12:34.285Z,-0.13
2023-12-03T08:15:37.019Z,-0.25
2023-12-03T08:18:39.821Z,-0.32
2023-12-03T08:21:42.684Z,-0.34
2023-12-03T08:24:45.429Z,-0.29
2023-12-03T08:27:48.247Z,-0.18
2023-12-03T08:30:51.112Z,-0.08
2023-12-03T08:33:53.865Z,-0.05
2023-12-03T08:36:57.170Z,-0.03
2023-12-03T08:40:00.831Z,-0.13
2023-12-03T08:43:03.477Z,-0.03
2023-12-03T08:46:06.497Z,-0.08
2023-12-03T08:49:09.816Z,0.00
2023-12-03T08:52:13.700Z,0.06
2023-12-03T08:55:16.422Z,0.09
2023-12-03T08:58:19.076Z,0.14
2023-12-03T09:01:21.783Z,0.13
2023-12-03T09:04:24.479Z,0.03
2023-12-03T09:07:28.620Z,0.04
2023-12-03T09:10:31.264Z,0.16
2023-12-03T09:13:35.787Z,0.29
2023-12-03T09:16:38.497Z,0.24
2023-12-03T09:19:41.256Z,0.29
2023-12-03T09:22:43.996Z,0.29
2023-12-03T09:25:46.701Z,0.35
2023-12-03T09:28:49.320Z,0.24
2023-12-03T09:31:54.622Z,0.28
2023-12-03T09:34:58.894Z,0.36
2023-12-03T09:38:01.552Z,0.46
2023-12-03T09:41:09.587Z,0.31
2023-12-03T09:44:26.969Z,0.33
2023-12-03T09:47:35.337Z,0.32
2023-12-03T09:50:38.700Z,0.41
2023-12-03T09:53:45.636Z,0.47
2023-12-03T09:56:51.399Z,0.42
2023-12-03T09:59:58.878Z,0.51
2023-12-03T10:03:01.880Z,0.60
2023-12-03T10:06:06.103Z,0.54
2023-12-03T10:09:09.100Z,0.62
2023-12-03T10:12:17.754Z,0.86
2023-12-03T10:15:20.762Z,0.69
2023-12-03T10:18:23.718Z,0.75
2023-12-03T10:21:27.052Z,0.90
2023-12-03T10:24:29.870Z,0.91
2023-12-03T10:27:32.852Z,0.96
2023-12-03T10:30:37.775Z,0.88
2023-12-03T10:33:40.664Z,1.05
2023-12-03T10:36:46.479Z,0.95
2023-12-03T10:39:49.252Z,0.92
2023-12-03T10:42:52.242Z,0.96
2023-12-03T10:45:55.274Z,0.98
2023-12-03T10:48:58.789Z,0.86
2023-12-03T10:52:03.320Z,0.89
2023-12-03T10:55:08.050Z,0.83
2023-12-03T10:58:12.137Z,0.72
2023-12-03T11:01:24.638Z,0.79
2023-12-03T11:04:44.193Z,0.56
2023-12-03T11:07:48.167Z,0.60
2023-12-03T11:10:56.298Z,0.80
2023-12-03T11:13:58.976Z,0.93
2023-12-03T11:17:35.400Z,0.96
2023-12-03T11:20:40.681Z,0.83
2023-12-03T11:23:59.307Z,0.74
2023-12-03T11:27:02.054Z,0.80
2023-12-03T11:30:05.692Z,0.92
2023-12-03T11:33:11.792Z,0.99
2023-12-03T11:36:14.672Z,0.91
2023-12-03T11:39:19.642Z,0.84
2023-12-03T11:42:24.905Z,0.87
2023-12-03T11:45:28.822Z,0.80
2023-12-03T11:48:33.079Z,1.02
2023-12-03T11:51:36.461Z,0.94
2023-12-03T11:54:48.317Z,1.04
2023-12-03T11:57:52.700Z,1.01
2023-12-03T12:00:55.494Z,0.88
2023-12-03T12:03:58.198Z,0.85
2023-12-03T12:07:17.360Z,0.87
2023-12-03T12:10:20.328Z,0.80
2023-12-03T12:13:26.241Z,0.75
2023-12-03T12:16:31.354Z,0.85
2023-12-03T12:19:34.420Z,0.79
2023-12-03T12:22:38.984Z,0.72
2023-12-03T12:25:42.715Z,0.70
2023-12-03T12:28:46.781Z,0.61
2023-12-03T12:31:49.789Z,0.71
2023-12-03T12:34:52.841Z,0.67
2023-12-03T12:38:06.879Z,0.73
2023-12-03T12:41:12.074Z,0.79
2023-12-03T12:44:15.182Z,0.76
2023-12-03T12:47:20.963Z,0.87
2023-12-03T12:50:37.798Z,0.83
2023-12-03T12:53:53.307Z,0.86
2023-12-03T12:56:56.101Z,0.82
2023-12-03T12:59:58.763Z,0.84
2023-12-03T13:03:02.226Z,0.69
2023-12-03T13:06:05.033Z,0.71
2023-12-03T13:09:07.723Z,0.72
2023-12-03T13:12:10.566Z,0.79
2023-12-03T13:15:13.795Z,0.76
2023-12-03T13:18:22.555Z,0.73
2023-12-03T13:21:28.237Z,0.75
2023-12-03T13:24:31.811Z,0.81
2023-12-03T13:27:34.819Z,0.79
2023-12-03T13:30:37.604Z,0.78
2023-12-03T13:33:40.408Z,0.88
2023-12-03T13:36:43.260Z,0.77
2023-12-03T13:39:46.042Z,0.74
2023-12-03T13:42:55.737Z,0.74
2023-12-03T13:45:59.516Z,0.67
2023-12-03T13:49:02.668Z,0.68
2023-12-03T13:52:05.377Z,0.65
2023-12-03T13:55:08.594Z,0.68
2023-12-03T13:58:11.389Z,0.62
2023-12-03T14:01:14.801Z,0.51
2023-12-03T14:04:18.655Z,0.61
2023-12-03T14:07:21.413Z,0.58
2023-12-03T14:10:25.436Z,0.47
2023-12-03T14:13:28.237Z,0.50
2023-12-03T14:16:30.955Z,0.51
2023-12-03T14:19:34.353Z,0.45
2023-12-03T14:22:41.890Z,0.33
2023-12-03T14:25:44.944Z,0.33
2023-12-03T14:28:47.634Z,0.27
2023-12-03T14:31:50.259Z,0.17
2023-12-03T14:34:52.896Z,0.12
2023-12-03T14:37:55.544Z,0.08
2023-12-03T14:40:58.160Z,0.06
2023-12-03T14:44:00.769Z,-0.02
2023-12-03T14:47:03.955Z,-0.12
2023-12-03T14:50:07.490Z,-0.13
2023-12-03T14:53:10.123Z,-0.20
2023-12-03T14:56:23.646Z,-0.27
2023-12-03T14:59:27.157Z,-0.31
2023-12-03T15:02:29.821Z,-0.34
2023-12-03T15:05:33.001Z,-0.39
2023-12-03T15:08:35.730Z,-0.46
2023-12-03T15:11:39.131Z,-0.47
2023-12-03T15:14:42.559Z,-0.52
2023-12-03T15:17:45.245Z,-0.55
2023-12-03T15:20:47.935Z,-0.66
2023-12-03T15:23:50.759Z,-0.66
2023-12-03T15:26:53.545Z,-0.62
2023-12-03T15:29:56.238Z,-0.59
2023-12-03T15:32:59.049Z,-0.69
2023-12-03T15:36:01.802Z,-0.76
2023-12-03T15:39:04.525Z,-0.69
2023-12-03T15:42:07.490Z,-0.75
2023-12-03T15:45:10.465Z,-0.83
2023-12-03T15:48:13.626Z,-0.85
2023-12-03T15:51:16.608Z,-0.94
2023-12-03T15:54:20.740Z,-0.98
2023-12-03T15:57:23.449Z,-1.03
2023-12-03T16:00:26.166Z,-1.07
2023-12-03T16:03:28.925Z,-1.10
2023-12-03T16:06:32.483Z,-1.03
2023-12-03T16:09:35.227Z,-0.93
2023-12-03T16:12:37.989Z,-0.89
2023-12-03T16:15:40.694Z,-0.93
2023-12-03T16:18:43.531Z,-1.02
2023-12-03T16:21:46.339Z,-1.03
2023-12-03T16:24:49.084Z,-1.06
2023-12-03T16:27:51.847Z,-1.07
2023-12-03T16:30:54.508Z,-1.13
2023-12-03T16:33:57.444Z,-1.13
2023-12-03T16:37:00.268Z,-1.19
2023-12-03T16:40:03.943Z,-1.26
2023-12-03T16:43:06.868Z,-1.23
2023-12-03T16:46:12.887Z,-1.19
2023-12-03T16:49:15.604Z,-1.30
2023-12-03T16:52:18.514Z,-1.38
2023-12-03T16:55:21.206Z,-1.38
2023-12-03T16:58:24.063Z,-1.34
2023-12-03T17:01:27.641Z,-1.31
2023-12-03T17:04:30.333Z,-1.37
2023-12-03T17:07:33.836Z,-1.26
2023-12-03T17:10:36.795Z,-1.32
2023-12-03T17:13:39.655Z,-1.27
2023-12-03T17:16:42.642Z,-1.23
2023-12-03T17:19:45.413Z,-1.26
2023-12-03T17:22:48.490Z,-1.24
2023-12-03T17:25:51.199Z,-1.27
2023-12-03T17:28:53.891Z,-1.39
2023-12-03T17:31:57.026Z,-1.41
2023-12-03T17:35:00.132Z,-1.35
2023-12-03T17:38:03.811Z,-1.31
2023-12-03T17:41:06.452Z,-1.29
2023-12-03T17:44:09.222Z,-1.37
2023-12-03T17:47:13.168Z,-1.41
2023-12-03T17:50:15.874Z,-1.41
2023-12-03T17:53:19.574Z,-1.43
2023-12-03T17:56:22.526Z,-1.48
2023-12-03T17:59:25.578Z,-1.47
2023-12-03T18:02:28.314Z,-1.49
2023-12-03T18:05:31.146Z,-1.52
2023-12-03T18:08:33.837Z,-1.56
2023-12-03T18:11:36.472Z,-1.58
2023-12-03T18:14:40.541Z,-1.71
2023-12-03T18:17:43.493Z,-1.62
2023-12-03T18:20:46.580Z,-1.59
2023-12-03T18:23:50.186Z,-1.63
2023-12-03T18:26:53.286Z,-1.65
2023-12-03T18:29:56.374Z,-1.65
2023-12-03T18:32:59.496Z,-1.71
2023-12-03T18:36:02.257Z,-1.76
2023-12-03T18:39:05.168Z,-1.83
2023-12-03T18:42:08.504Z,-1.82
2023-12-03T18:45:11.600Z,-1.85
2023-12-03T18:48:14.793Z,-1.91
2023-12-03T18:51:17.765Z,-1.88
2023-12-03T18:54:20.713Z,-1.99
2023-12-03T18:57:23.567Z,-2.00
2023-12-03T19:00:26.629Z,-2.08
2023-12-03T19:03:29.888Z,-1.97
2023-12-03T19:06:33.492Z,-1.96
2023-12-03T19:09:36.713Z,-2.06
2023-12-03T19:12:39.980Z,-2.12
2023-12-03T19:15:43.563Z,-2.16
2023-12-03T19:18:47.561Z,-2.15
2023-12-03T19:21:52.044Z,-2.15
2023-12-03T19:24:55.648Z,-2.21
2023-12-03T19:27:58.646Z,-2.24
2023-12-03T19:31:04.125Z,-2.22
2023-12-03T19:34:07.234Z,-2.16
2023-12-03T19:37:09.938Z,-2.23
2023-12-03T19:40:13.534Z,-2.20
2023-12-03T19:43:16.259Z,-2.30
2023-12-03T19:46:19.243Z,-2.37
2023-12-03T19:49:22.368Z,-2.39
2023-12-03T19:52:25.353Z,-2.41
2023-12-03T19:55:28.322Z,-2.31
2023-12-03T19:58:31.148Z,-2.36
2023-12-03T20:01:34.690Z,-2.47
2023-12-03T20:04:37.750Z,-2.50
2023-12-03T20:07:40.483Z,-2.59
2023-12-03T20:10:44.294Z,-2.63
2023-12-03T20:13:47.384Z,-2.70
2023-12-03T20:16:50.409Z,-2.64
2023-12-03T20:19:53.642Z,-2.65
2023-12-03T20:22:57.417Z,-2.69
2023-12-03T20:26:05.958Z,-2.76
2023-12-03T20:29:08.611Z,-2.85
2023-12-03T20:32:11.307Z,-2.86
2023-12-03T20:35:13.957Z,-2.85
2023-12-03T20:38:16.572Z,-2.85
2023-12-03T20:41:23.984Z,-2.64
2023-12-03T20:44:27.537Z,-2.67
2023-12-03T20:47:30.209Z,-2.68
2023-12-03T20:50:35.230Z,-2.67
2023-12-03T20:53:38.094Z,-2.70
2023-12-03T20:56:40.716Z,-2.77
2023-12-03T20:59:43.467Z,-3.00
2023-12-03T21:02:46.128Z,-2.95
2023-12-03T21:05:48.798Z,-2.91
2023-12-03T21:08:52.809Z,-2.78
2023-12-03T21:11:55.531Z,-2.88
2023-12-03T21:14:58.221Z,-2.85
2023-12-03T21:18:00.954Z,-2.87
2023-12-03T21:21:03.860Z,-2.89
2023-12-03T21:24:07.250Z,-2.82
2023-12-03T21:27:09.960Z,-2.74
2023-12-03T21:30:12.960Z,-2.86
2023-12-03T21:33:15.808Z,-2.77
2023-12-03T21:36:18.596Z,-2.93
2023-12-03T21:39:21.367Z,-2.94
2023-12-03T21:42:24.492Z,-3.03
2023-12-03T21:45:27.890Z,-3.06
2023-12-03T21:48:30.661Z,-3.03
2023-12-03T21:51:33.756Z,-3.04
2023-12-03T21:54:36.636Z,-3.01
2023-12-03T21:57:39.456Z,-2.98
2023-12-03T22:00:42.931Z,-2.86
2023-12-03T22:03:45.686Z,-2.86
2023-12-03T22:06:48.502Z,-3.06
2023-12-03T22:09:51.829Z,-3.04
2023-12-03T22:12:56.508Z,-2.96
2023-12-03T22:15:59.326Z,-3.00
2023-12-03T22:19:02.073Z,-3.25
2023-12-03T22:22:05.298Z,-3.31
2023-12-03T22:25:08.240Z,-3.25
2023-12-03T22:28:10.943Z,-3.19
2023-12-03T22:31:13.662Z,-3.16
2023-12-03T22:34:16.518Z,-3.22
2023-12-03T22:37:19.172Z,-3.46
2023-12-03T22:40:21.929Z,-3.64
2023-12-03T22:43:24.602Z,-3.71
2023-12-03T22:46:27.994Z,-3.52
2023-12-03T22:49:31.294Z,-3.43
2023-12-03T22:52:35.880Z,-3.40
2023-12-03T22:55:38.705Z,-3.40
2023-12-03T22:58:41.401Z,-3.39
2023-12-03T23:01:44.194Z,-3.40
2023-12-03T23:04:47.071Z,-3.50
2023-12-03T23:07:49.755Z,-3.53
2023-12-03T23:10:52.410Z,-3.45
2023-12-03T23:13:55.223Z,-3.48
2023-12-03T23:16:57.912Z,-3.51
2023-12-03T23:20:00.759Z,-3.53
2023-12-03T23:23:03.823Z,-3.53
2023-12-03T23:26:07.115Z,-3.41
2023-12-03T23:29:10.028Z,-3.46
2023-12-03T23:32:15.113Z,-3.51
2023-12-03T23:35:18.524Z,-3.57
2023-12-03T23:38:21.138Z,-3.67
2023-12-03T23:41:25.852Z,-3.65
2023-12-03T23:44:28.552Z,-3.67
2023-12-03T23:47:31.252Z,-3.65
2023-12-03T23:50:34.018Z,-3.57
2023-12-03T23:53:37.181Z,-3.61
2023-12-03T23:56:39.822Z,-3.70
2023-12-03T23:59:42.437Z,-3.80
